createdAt,value
2022-12-19T00:02:03.828Z,-5.24
2022-12-19T00:03:13.946Z,-5.34
2022-12-19T00:04:23.123Z,-5.37
2022-12-19T00:17:45.688Z,-5.04
2022-12-19T00:20:14.684Z,-5.29
2022-12-19T00:22:45.620Z,-5.27
2022-12-19T00:23:55.044Z,-5.36
2022-12-19T00:25:04.844Z,-5.36
2022-12-19T00:27:36.704Z,-5.34
2022-12-19T00:30:06.396Z,-5.14
2022-12-19T00:31:18.810Z,-5.32
2022-12-19T00:32:30.125Z,-5.38
2022-12-19T00:33:43.309Z,-5.36
2022-12-19T00:34:50.952Z,-5.27
2022-12-19T00:36:51.262Z,-5.08
2022-12-19T00:38:01.647Z,-5.23
2022-12-19T00:39:11.192Z,-5.20
2022-12-19T00:40:21.506Z,-5.29
2022-12-19T00:41:35.087Z,-5.35
2022-12-19T00:42:48.651Z,-5.36
2022-12-19T00:43:58.229Z,-5.32
2022-12-19T00:45:07.082Z,-5.33
2022-12-19T00:47:33.063Z,-5.14
2022-12-19T00:48:42.207Z,-5.25
2022-12-19T00:49:51.106Z,-5.14
2022-12-19T00:51:08.163Z,-4.99
2022-12-19T00:52:17.987Z,-4.94
2022-12-19T00:53:26.581Z,-4.90
2022-12-19T00:54:36.170Z,-4.84
2022-12-19T00:55:46.776Z,-4.81
2022-12-19T00:56:55.625Z,-4.80
2022-12-19T00:58:05.439Z,-4.78
2022-12-19T00:59:14.336Z,-4.77
2022-12-19T01:00:26.685Z,-4.78
2022-12-19T01:01:42.125Z,-4.80
2022-12-19T01:02:53.682Z,-4.88
2022-12-19T01:05:17.355Z,-4.92
2022-12-19T01:06:27.707Z,-4.91
2022-12-19T01:07:37.242Z,-4.93
2022-12-19T01:08:45.875Z,-4.97
2022-12-19T01:09:56.287Z,-4.93
2022-12-19T01:12:46.573Z,-4.52
2022-12-19T01:13:56.108Z,-4.45
2022-12-19T01:16:22.157Z,-4.05
2022-12-19T01:18:48.297Z,-4.11
2022-12-19T01:19:57.268Z,-4.18
2022-12-19T01:21:09.175Z,-4.19
2022-12-19T01:22:19.109Z,-4.21
2022-12-19T01:23:28.725Z,-4.35
2022-12-19T01:25:54.874Z,-4.24
2022-12-19T01:27:04.229Z,-4.50
2022-12-19T01:29:34.585Z,-4.39
2022-12-19T01:30:44.652Z,-4.52
2022-12-19T01:31:54.467Z,-4.57
2022-12-19T01:33:03.256Z,-4.65
2022-12-19T01:35:29.721Z,-4.46
2022-12-19T01:36:39.787Z,-4.57
2022-12-19T01:39:08.367Z,-4.35
2022-12-19T01:40:20.563Z,-4.37
2022-12-19T01:41:31.496Z,-4.23
2022-12-19T01:42:41.002Z,-4.07
2022-12-19T01:45:20.492Z,-3.81
2022-12-19T01:46:42.710Z,-3.85
2022-12-19T01:47:59.302Z,-3.77
2022-12-19T01:49:25.155Z,-3.75
2022-12-19T01:51:00.814Z,-3.77
2022-12-19T01:52:12.887Z,-3.82
2022-12-19T01:54:40.852Z,-3.99
2022-12-19T01:55:49.590Z,-4.11
2022-12-19T01:57:03.306Z,-4.18
2022-12-19T01:58:14.701Z,-4.21
2022-12-19T01:59:30.522Z,-4.25
2022-12-19T02:00:43.590Z,-4.26
2022-12-19T02:03:27.551Z,-4.24
2022-12-19T02:06:02.273Z,-4.46
2022-12-19T02:07:16.018Z,-4.39
2022-12-19T02:08:23.769Z,-4.37
2022-12-19T02:09:34.118Z,-4.34
2022-12-19T02:12:18.723Z,-3.91
2022-12-19T02:13:30.004Z,-4.11
2022-12-19T02:14:40.228Z,-3.83
2022-12-19T06:19:59.121Z,-3.75
2022-12-19T06:22:27.017Z,-3.55
2022-12-19T06:23:36.444Z,-3.56
2022-12-19T06:24:47.397Z,-3.40
2022-12-19T06:25:58.745Z,-3.27
2022-12-19T06:27:08.677Z,-3.11
2022-12-19T06:28:18.343Z,-3.01
2022-12-19T06:29:26.956Z,-2.84
2022-12-19T06:30:35.764Z,-2.66
2022-12-19T06:31:45.179Z,-2.52
2022-12-19T06:32:54.771Z,-2.43
2022-12-19T06:34:05.060Z,-2.25
2022-12-19T06:35:14.270Z,-2.15
2022-12-19T06:36:29.933Z,-2.06
2022-12-19T06:37:39.761Z,-2.04
2022-12-19T06:40:06.949Z,-2.07
2022-12-19T06:41:35.968Z,-2.18
2022-12-19T06:42:47.219Z,-2.17
2022-12-19T06:44:01.055Z,-2.20
2022-12-19T06:45:10.913Z,-2.30
2022-12-19T06:46:19.489Z,-2.32
2022-12-19T06:47:28.563Z,-2.34
2022-12-19T06:48:37.173Z,-2.33
2022-12-19T06:49:50.629Z,-2.33
2022-12-19T06:52:16.629Z,-2.21
2022-12-19T06:53:25.617Z,-2.34
2022-12-19T06:54:34.480Z,-2.37
2022-12-19T06:55:45.752Z,-2.43
2022-12-19T06:56:54.666Z,-2.42
2022-12-19T06:58:03.869Z,-2.40
2022-12-19T06:59:16.568Z,-2.38
2022-12-19T07:00:27.059Z,-2.37
2022-12-19T07:01:43.763Z,-2.36
2022-12-19T07:02:54.700Z,-2.36
2022-12-19T07:04:04.212Z,-2.35
2022-12-19T07:05:14.167Z,-2.32
2022-12-19T07:06:23.756Z,-2.34
2022-12-19T07:07:33.794Z,-2.38
2022-12-19T07:08:43.235Z,-2.33
2022-12-19T07:09:53.088Z,-2.32
2022-12-19T07:11:01.880Z,-2.28
2022-12-19T07:12:11.593Z,-2.25
2022-12-19T07:13:20.416Z,-2.25
2022-12-19T07:14:29.260Z,-2.22
2022-12-19T07:15:38.737Z,-2.19
2022-12-19T07:18:08.533Z,-1.99
2022-12-19T07:19:19.066Z,-2.06
2022-12-19T07:20:31.074Z,-2.04
2022-12-19T07:21:41.636Z,-2.00
2022-12-19T07:22:51.220Z,-1.96
2022-12-19T07:25:18.261Z,-1.77
2022-12-19T07:26:27.812Z,-1.85
2022-12-19T07:27:39.361Z,-1.84
2022-12-19T07:28:48.435Z,-1.83
2022-12-19T07:29:56.957Z,-1.83
2022-12-19T07:31:07.057Z,-1.83
2022-12-19T07:32:16.133Z,-1.87
2022-12-19T07:33:24.755Z,-1.91
2022-12-19T07:34:33.408Z,-1.93
2022-12-19T07:35:42.951Z,-1.90
2022-12-19T07:36:52.354Z,-1.84
2022-12-19T07:38:06.977Z,-1.80
2022-12-19T07:39:16.903Z,-1.75
2022-12-19T07:41:42.192Z,-1.59
2022-12-19T07:42:53.155Z,-1.66
2022-12-19T07:45:17.031Z,-1.49
2022-12-19T07:46:29.233Z,-1.58
2022-12-19T07:47:38.039Z,-1.57
2022-12-19T07:48:46.707Z,-1.64
2022-12-19T07:49:55.771Z,-1.63
2022-12-19T07:51:05.833Z,-1.64
2022-12-19T07:52:14.448Z,-1.61
2022-12-19T07:53:25.368Z,-1.65
2022-12-19T07:54:35.545Z,-1.62
2022-12-19T07:55:45.181Z,-1.63
2022-12-19T07:56:54.995Z,-1.61
2022-12-19T07:58:03.645Z,-1.62
2022-12-19T07:59:13.455Z,-1.61
2022-12-19T08:00:23.441Z,-1.59
2022-12-19T08:01:32.285Z,-1.57
2022-12-19T08:02:42.389Z,-1.53
2022-12-19T08:03:52.403Z,-1.53
2022-12-19T08:05:05.330Z,-1.52
2022-12-19T08:06:13.842Z,-1.53
2022-12-19T08:08:40.337Z,-1.36
2022-12-19T08:09:49.271Z,-1.47
2022-12-19T08:11:21.952Z,-1.46
2022-12-19T08:12:33.357Z,-1.46
2022-12-19T08:13:46.479Z,-1.43
2022-12-19T08:14:57.440Z,-1.57
2022-12-19T08:16:08.583Z,-1.53
2022-12-19T08:17:21.357Z,-1.52
2022-12-19T08:18:27.751Z,-1.51
2022-12-19T08:19:36.916Z,-1.51
2022-12-19T08:20:46.449Z,-1.50
2022-12-19T08:21:56.081Z,-1.45
2022-12-19T08:23:05.846Z,-1.47
2022-12-19T08:24:15.871Z,-1.62
2022-12-19T08:25:26.710Z,-1.56
2022-12-19T08:26:40.627Z,-1.61
2022-12-19T08:27:46.501Z,-1.66
2022-12-19T08:28:58.672Z,-1.62
2022-12-19T08:30:08.954Z,-1.60
2022-12-19T08:31:18.806Z,-1.58
2022-12-19T08:32:31.501Z,-1.67
2022-12-19T08:33:40.520Z,-1.65
2022-12-19T08:34:51.296Z,-1.63
2022-12-19T08:37:23.543Z,-1.46
2022-12-19T08:38:32.584Z,-1.55
2022-12-19T08:39:42.793Z,-1.53
2022-12-19T08:40:54.629Z,-1.49
2022-12-19T08:42:03.724Z,-1.44
2022-12-19T08:43:12.690Z,-1.41
2022-12-19T08:44:24.088Z,-1.41
2022-12-19T08:45:33.079Z,-1.41
2022-12-19T08:46:46.545Z,-1.42
2022-12-19T08:47:53.345Z,-1.39
2022-12-19T08:49:02.997Z,-1.34
2022-12-19T08:50:11.837Z,-1.35
2022-12-19T08:51:20.870Z,-1.31
2022-12-19T08:52:29.356Z,-1.29
2022-12-19T08:53:40.967Z,-1.35
2022-12-19T08:54:49.479Z,-1.33
2022-12-19T08:56:02.181Z,-1.33
2022-12-19T08:57:10.824Z,-1.30
2022-12-19T08:58:19.643Z,-1.28
2022-12-19T08:59:31.769Z,-1.28
2022-12-19T09:00:39.075Z,-1.24
2022-12-19T09:01:48.289Z,-1.23
2022-12-19T09:05:57.291Z,-1.06
2022-12-19T09:06:01.519Z,-1.13
2022-12-19T09:06:34.454Z,-1.10
2022-12-19T09:07:43.415Z,-1.12
2022-12-19T09:08:52.914Z,-1.12
2022-12-19T09:10:03.770Z,-1.11
2022-12-19T09:11:16.504Z,-1.06
2022-12-19T09:12:25.240Z,-1.02
2022-12-19T09:14:51.851Z,-0.87
2022-12-19T09:16:03.008Z,-0.92
2022-12-19T09:17:12.721Z,-0.89
2022-12-19T09:18:24.271Z,-0.82
2022-12-19T09:19:33.059Z,-0.78
2022-12-19T09:20:42.308Z,-0.82
2022-12-19T09:21:50.920Z,-0.71
2022-12-19T09:23:01.571Z,-0.67
2022-12-19T09:24:11.224Z,-0.70
2022-12-19T09:25:20.502Z,-0.75
2022-12-19T09:26:33.732Z,-0.86
2022-12-19T09:28:57.141Z,-0.83
2022-12-19T09:30:07.836Z,-0.93
2022-12-19T09:32:35.352Z,-0.74
2022-12-19T09:33:45.098Z,-0.81
2022-12-19T09:34:54.093Z,-0.83
2022-12-19T09:36:04.681Z,-0.84
2022-12-19T09:37:16.696Z,-0.83
2022-12-19T09:39:41.267Z,-0.64
2022-12-19T09:42:41.280Z,-0.61
2022-12-19T09:44:10.291Z,-0.70
2022-12-19T09:46:58.736Z,-0.49
2022-12-19T09:48:24.656Z,-0.60
2022-12-19T09:49:36.952Z,-0.61
2022-12-19T09:51:09.601Z,-0.61
2022-12-19T09:52:23.185Z,-0.64
2022-12-19T09:53:38.811Z,-0.64
2022-12-19T09:55:18.144Z,-0.67
2022-12-19T09:56:34.017Z,-0.71
2022-12-19T09:58:10.860Z,-0.75
2022-12-19T10:01:00.221Z,-0.71
2022-12-19T14:36:09.709Z,-1.78
2022-12-19T14:36:12.267Z,-1.82
2022-12-19T14:39:22.760Z,-1.75
2022-12-19T14:39:26.778Z,-1.67
2022-12-19T14:41:49.164Z,-1.50
2022-12-19T14:43:59.201Z,-1.61
2022-12-19T14:52:34.839Z,-1.58
2022-12-19T14:54:18.276Z,-1.17
2022-12-19T14:56:11.441Z,-1.31
2022-12-19T14:58:50.803Z,-1.40
2022-12-19T14:58:57.513Z,-1.51
2022-12-19T15:01:07.599Z,-1.54
2022-12-19T15:01:39.309Z,-1.58
2022-12-19T15:02:48.851Z,-1.62
2022-12-19T15:04:51.738Z,-1.64
2022-12-19T15:05:19.259Z,-1.62
2022-12-19T15:07:49.271Z,-1.51
2022-12-19T15:11:00.304Z,-1.66
2022-12-19T15:11:08.943Z,-1.69
2022-12-19T15:12:56.508Z,-1.74
2022-12-19T15:14:47.324Z,-1.72
2022-12-19T15:14:51.991Z,-1.68
2022-12-19T15:16:01.952Z,-1.68
2022-12-19T15:17:23.826Z,-1.71
2022-12-19T15:18:39.326Z,-1.74
2022-12-19T15:19:49.354Z,-1.73
2022-12-19T15:21:01.401Z,-1.84
2022-12-19T15:22:10.126Z,-1.78
2022-12-19T15:23:22.252Z,-1.73
2022-12-19T15:24:30.210Z,-1.74
2022-12-19T15:26:03.265Z,-1.74
2022-12-19T15:26:53.250Z,-1.77
2022-12-19T15:28:02.757Z,-1.81
2022-12-19T15:30:32.113Z,-1.70
2022-12-19T15:31:44.081Z,-1.90
2022-12-19T15:32:53.948Z,-2.04
2022-12-19T15:35:27.766Z,-1.93
2022-12-19T15:36:37.375Z,-2.04
2022-12-19T15:37:46.502Z,-1.98
2022-12-19T15:38:55.193Z,-1.93
2022-12-19T15:40:06.433Z,-1.86
2022-12-19T15:41:19.722Z,-1.81
2022-12-19T15:42:28.479Z,-1.77
2022-12-19T15:44:03.228Z,-1.75
2022-12-19T15:44:49.052Z,-1.72
2022-12-19T15:45:59.671Z,-1.70
2022-12-19T15:47:18.469Z,-1.67
2022-12-19T15:48:27.351Z,-1.65
2022-12-19T15:49:36.321Z,-1.62
2022-12-19T15:50:45.455Z,-1.60
2022-12-19T15:51:56.218Z,-1.60
2022-12-19T15:53:14.143Z,-1.62
2022-12-19T15:54:48.037Z,-1.62
2022-12-19T15:55:31.364Z,-1.68
2022-12-19T15:58:05.758Z,-1.63
2022-12-19T15:59:37.218Z,-1.75
2022-12-19T16:00:46.069Z,-1.72
2022-12-19T16:01:57.256Z,-1.65
2022-12-19T16:03:25.579Z,-1.61
2022-12-19T16:05:34.866Z,-1.62
2022-12-19T16:06:46.363Z,-1.73
2022-12-19T16:07:56.411Z,-1.74
2022-12-19T16:10:34.753Z,-1.68
2022-12-19T16:11:45.532Z,-1.77
2022-12-19T16:12:57.168Z,-1.77
2022-12-19T16:14:06.331Z,-1.77
2022-12-19T16:15:21.830Z,-1.74
2022-12-19T16:16:31.482Z,-1.72
2022-12-19T16:17:41.455Z,-1.79
2022-12-19T16:18:50.437Z,-1.86
2022-12-19T16:19:59.053Z,-1.82
2022-12-19T16:21:20.336Z,-1.78
2022-12-19T16:22:29.916Z,-1.76
2022-12-19T16:23:38.835Z,-1.76
2022-12-19T16:24:48.386Z,-1.72
2022-12-19T16:25:59.301Z,-1.68
2022-12-19T16:27:12.645Z,-1.62
2022-12-19T16:29:43.164Z,-1.52
2022-12-19T16:30:52.895Z,-1.62
2022-12-19T16:32:02.749Z,-1.63
2022-12-19T16:33:18.755Z,-1.65
2022-12-19T16:34:28.497Z,-1.70
2022-12-19T16:36:52.928Z,-1.73
2022-12-19T16:38:02.579Z,-1.84
2022-12-19T16:39:12.383Z,-1.83
2022-12-19T16:40:24.985Z,-1.77
2022-12-19T16:41:42.625Z,-1.79
2022-12-19T16:43:56.654Z,-1.73
2022-12-19T16:45:08.412Z,-1.67
2022-12-19T16:47:38.256Z,-1.48
2022-12-19T16:48:47.864Z,-1.55
2022-12-19T16:49:56.398Z,-1.53
2022-12-19T16:51:10.152Z,-1.52
2022-12-19T16:52:19.108Z,-1.51
2022-12-19T16:53:29.731Z,-1.50
2022-12-19T16:54:39.259Z,-1.51
2022-12-19T16:55:49.922Z,-1.53
2022-12-19T16:57:06.604Z,-1.53
2022-12-19T16:59:40.320Z,-1.44
2022-12-19T17:00:53.052Z,-1.54
2022-12-19T17:02:03.995Z,-1.58
2022-12-19T17:03:35.705Z,-1.59
2022-12-19T17:06:00.833Z,-1.53
2022-12-19T17:07:11.338Z,-1.68
2022-12-19T17:08:20.122Z,-1.73
2022-12-19T17:09:29.009Z,-1.76
2022-12-19T17:10:41.357Z,-1.77
2022-12-19T17:11:59.880Z,-1.77
2022-12-19T17:13:10.843Z,-1.80
2022-12-19T17:14:24.132Z,-1.90
2022-12-19T17:15:36.242Z,-1.93
2022-12-19T17:16:46.168Z,-1.96
2022-12-19T17:17:58.740Z,-1.97
2022-12-19T17:21:52.932Z,-2.04
2022-12-19T17:23:02.443Z,-2.19
2022-12-19T17:24:14.376Z,-2.18
2022-12-19T17:25:27.329Z,-2.17
2022-12-19T17:26:35.976Z,-2.12
2022-12-19T17:27:45.132Z,-2.11
2022-12-19T17:28:56.332Z,-2.13
2022-12-19T17:31:29.204Z,-2.18
2022-12-19T17:32:39.550Z,-2.31
2022-12-19T17:33:48.956Z,-2.30
2022-12-19T17:34:58.091Z,-2.34
2022-12-19T17:36:11.670Z,-2.35
2022-12-19T17:37:21.346Z,-2.32
2022-12-19T17:38:30.044Z,-2.33
2022-12-19T17:39:41.578Z,-2.30
2022-12-19T17:40:50.580Z,-2.35
2022-12-19T17:42:03.254Z,-2.35
2022-12-19T17:43:13.846Z,-2.35
2022-12-19T17:44:22.673Z,-2.36
2022-12-19T17:45:33.642Z,-2.35
2022-12-19T17:46:43.719Z,-2.35
2022-12-19T17:48:00.312Z,-2.30
2022-12-19T17:50:27.904Z,-2.14
2022-12-19T17:51:37.122Z,-2.23
2022-12-19T17:52:46.692Z,-2.17
2022-12-19T17:53:55.697Z,-2.15
2022-12-19T17:55:15.566Z,-2.11
2022-12-19T17:56:24.133Z,-2.12
2022-12-19T17:57:34.010Z,-2.10
2022-12-19T17:58:43.026Z,-2.08
2022-12-19T18:01:22.185Z,-1.96
2022-12-19T18:02:31.330Z,-2.06
2022-12-19T18:03:40.363Z,-2.08
2022-12-19T18:04:51.808Z,-2.10
2022-12-19T18:06:02.570Z,-2.19
2022-12-19T18:07:15.912Z,-2.19
2022-12-19T18:08:28.232Z,-2.21
2022-12-19T18:09:37.331Z,-2.21
2022-12-19T18:10:46.465Z,-2.18
2022-12-19T18:11:55.982Z,-2.18
2022-12-19T18:13:05.096Z,-2.22
2022-12-19T18:14:14.599Z,-2.24
2022-12-19T18:15:25.643Z,-2.25
2022-12-19T18:16:36.105Z,-2.26
2022-12-19T18:19:05.215Z,-2.27
2022-12-19T18:20:21.212Z,-2.40
2022-12-19T18:21:31.140Z,-2.35
2022-12-19T18:22:40.199Z,-2.33
2022-12-19T18:23:49.176Z,-2.42
2022-12-19T18:26:14.171Z,-2.41
2022-12-19T18:27:24.447Z,-2.49
2022-12-19T18:29:48.169Z,-2.45
2022-12-19T18:32:20.937Z,-2.68
2022-12-19T18:33:32.832Z,-2.82
2022-12-19T18:34:42.096Z,-3.16
2022-12-19T18:35:52.100Z,-3.31
2022-12-19T18:37:02.157Z,-3.28
2022-12-19T18:39:36.701Z,-3.05
2022-12-19T18:40:46.502Z,-3.10
2022-12-19T18:41:55.600Z,-3.16
2022-12-19T18:43:05.326Z,-3.26
2022-12-19T18:45:47.851Z,-3.21
2022-12-19T18:46:59.588Z,-3.26
2022-12-19T18:48:21.811Z,-3.38
2022-12-19T18:49:33.465Z,-3.31
2022-12-19T18:50:43.165Z,-3.21
2022-12-19T18:51:52.733Z,-3.19
2022-12-19T18:53:01.779Z,-3.05
2022-12-19T18:54:20.434Z,-2.88
2022-12-19T18:55:32.665Z,-2.83
2022-12-19T18:56:41.745Z,-2.89
2022-12-19T18:57:51.445Z,-2.97
2022-12-19T18:59:03.356Z,-2.99
2022-12-19T19:00:19.227Z,-3.09
2022-12-19T19:01:28.954Z,-3.18
2022-12-19T19:02:43.573Z,-3.22
2022-12-19T19:03:59.631Z,-3.21
2022-12-19T19:05:18.629Z,-3.19
2022-12-19T19:06:34.269Z,-3.28
2022-12-19T19:07:42.104Z,-3.33
2022-12-19T19:08:53.088Z,-3.35
2022-12-19T19:10:28.793Z,-3.35
2022-12-19T19:11:39.352Z,-3.37
2022-12-19T19:12:50.068Z,-3.31
2022-12-19T19:13:59.039Z,-3.33
2022-12-19T19:15:08.429Z,-3.26
2022-12-19T19:16:27.257Z,-3.11
2022-12-19T19:17:38.047Z,-2.92
2022-12-19T19:18:51.811Z,-2.79
2022-12-19T19:20:02.478Z,-2.63
2022-12-19T19:22:29.572Z,-2.31
2022-12-19T19:24:59.032Z,-2.72
2022-12-19T19:26:08.353Z,-2.98
2022-12-19T19:27:17.097Z,-3.12
2022-12-19T19:28:25.633Z,-2.99
2022-12-19T19:29:34.447Z,-3.14
2022-12-19T19:30:44.738Z,-3.12
2022-12-19T19:31:54.288Z,-3.07
2022-12-19T19:33:10.674Z,-3.18
2022-12-19T19:34:29.682Z,-3.10
2022-12-19T19:36:58.575Z,-2.71
2022-12-19T19:38:08.698Z,-2.71
2022-12-19T19:39:19.683Z,-2.63
2022-12-19T19:40:30.315Z,-2.42
2022-12-19T19:41:39.101Z,-2.42
2022-12-19T19:42:48.644Z,-2.59
2022-12-19T19:45:15.413Z,-2.74
2022-12-19T19:46:24.447Z,-2.78
2022-12-19T19:48:51.125Z,-2.98
2022-12-19T19:49:59.722Z,-3.03
2022-12-19T19:51:09.414Z,-2.91
2022-12-19T19:52:18.456Z,-2.86
2022-12-19T19:53:28.042Z,-2.82
2022-12-19T19:54:36.888Z,-2.66
2022-12-19T19:55:47.435Z,-2.89
2022-12-19T19:56:56.699Z,-2.97
2022-12-19T19:58:06.440Z,-3.03
2022-12-19T19:59:15.738Z,-3.56
2022-12-19T20:00:24.680Z,-3.61
2022-12-19T20:01:35.862Z,-3.64
2022-12-19T20:02:45.553Z,-3.31
2022-12-19T20:03:54.401Z,-3.51
2022-12-19T20:05:03.516Z,-3.36
2022-12-19T20:06:12.618Z,-3.06
2022-12-19T20:07:21.608Z,-3.12
2022-12-19T20:08:38.621Z,-2.90
2022-12-19T20:09:42.000Z,-2.69
2022-12-19T20:10:55.418Z,-2.57
2022-12-19T20:12:05.273Z,-2.86
2022-12-19T20:13:15.105Z,-2.59
2022-12-19T20:14:24.068Z,-2.60
2022-12-19T20:16:50.862Z,-2.57
2022-12-19T20:17:59.378Z,-2.73
2022-12-19T20:19:08.016Z,-2.75
2022-12-19T20:20:17.371Z,-3.04
2022-12-19T20:21:26.904Z,-3.14
2022-12-19T20:22:36.660Z,-3.06
2022-12-19T20:23:46.819Z,-3.05
2022-12-19T20:24:55.843Z,-3.18
2022-12-19T20:27:24.826Z,-3.00
2022-12-19T20:28:34.151Z,-3.34
2022-12-19T20:29:43.006Z,-3.09
2022-12-19T20:30:51.707Z,-2.84
2022-12-19T20:32:00.468Z,-2.74
2022-12-19T20:33:10.169Z,-2.63
2022-12-19T20:34:22.151Z,-2.55
2022-12-19T20:35:30.975Z,-2.78
2022-12-19T20:36:40.723Z,-2.51
2022-12-19T20:37:49.841Z,-2.48
2022-12-19T20:38:58.859Z,-2.64
2022-12-19T20:40:08.845Z,-2.91
2022-12-19T20:41:18.312Z,-2.83
2022-12-19T20:42:27.710Z,-2.87
2022-12-19T20:43:38.100Z,-2.99
2022-12-19T20:44:47.654Z,-2.99
2022-12-19T20:46:06.366Z,-3.08
2022-12-19T20:48:30.862Z,-2.73
2022-12-19T20:50:57.070Z,-2.34
2022-12-19T20:52:06.113Z,-2.25
2022-12-19T20:53:16.954Z,-2.02
2022-12-19T20:54:25.678Z,-1.91
2022-12-19T20:55:35.381Z,-1.73
2022-12-19T20:56:49.228Z,-1.58
2022-12-19T20:57:58.609Z,-1.49
2022-12-19T21:00:23.026Z,-1.51
2022-12-19T21:01:32.666Z,-1.69
2022-12-19T21:03:24.907Z,-1.74
2022-12-19T21:03:53.560Z,-1.93
2022-12-19T21:05:02.675Z,-2.08
2022-12-19T21:06:13.941Z,-2.21
2022-12-19T21:07:24.202Z,-2.26
2022-12-19T21:08:34.696Z,-2.32
2022-12-19T21:09:45.116Z,-2.35
2022-12-19T21:10:54.562Z,-2.34
2022-12-19T21:12:05.259Z,-2.33
2022-12-19T21:13:14.767Z,-2.30
2022-12-19T21:14:23.943Z,-2.28
2022-12-19T21:15:34.791Z,-2.33
2022-12-19T21:16:44.314Z,-2.41
2022-12-19T21:17:53.863Z,-2.55
2022-12-19T21:19:03.530Z,-2.58
2022-12-19T21:20:14.638Z,-2.63
